createdAt,value
2023-01-21T00:01:37.354Z,1.67
2023-01-21T00:04:05.006Z,1.68
2023-01-21T00:06:32.619Z,1.63
2023-01-21T00:09:02.429Z,1.58
2023-01-21T00:11:30.159Z,1.52
2023-01-21T00:14:01.331Z,1.48
2023-01-21T00:16:28.861Z,1.44
2023-01-21T00:18:56.942Z,1.41
2023-01-21T00:21:24.569Z,1.39
2023-01-21T00:23:52.175Z,1.33
2023-01-21T00:26:19.820Z,1.29
2023-01-21T00:28:48.415Z,1.27
2023-01-21T00:31:17.514Z,1.24
2023-01-21T00:33:45.409Z,1.20
2023-01-21T00:36:18.259Z,1.15
2023-01-21T00:38:49.150Z,1.12
2023-01-21T00:41:17.225Z,1.10
2023-01-21T00:43:45.114Z,1.11
2023-01-21T00:46:12.897Z,1.09
2023-01-21T00:48:41.849Z,1.08
2023-01-21T00:51:09.965Z,1.02
2023-01-21T00:53:41.678Z,1.01
2023-01-21T00:56:11.654Z,0.96
2023-01-21T00:58:39.716Z,0.91
2023-01-21T01:01:09.925Z,0.83
2023-01-21T01:03:39.221Z,0.80
2023-01-21T01:06:10.344Z,0.78
2023-01-21T01:08:37.934Z,0.75
2023-01-21T01:11:06.061Z,0.76
2023-01-21T01:13:34.636Z,0.74
2023-01-21T01:16:02.664Z,0.68
2023-01-21T01:18:32.459Z,0.68
2023-01-21T01:21:00.548Z,0.70
2023-01-21T01:23:30.113Z,0.70
2023-01-21T01:25:59.517Z,0.67
2023-01-21T01:28:27.627Z,0.70
2023-01-21T01:30:55.721Z,0.66
2023-01-21T01:33:23.892Z,0.66
2023-01-21T01:35:51.830Z,0.64
2023-01-21T01:38:21.947Z,0.67
2023-01-21T01:40:53.636Z,0.63
2023-01-21T01:43:24.545Z,0.65
2023-01-21T01:45:52.695Z,0.64
2023-01-21T01:48:24.875Z,0.63
2023-01-21T01:50:52.786Z,0.64
2023-01-21T01:53:20.765Z,0.61
2023-01-21T01:55:51.098Z,0.62
2023-01-21T01:58:21.825Z,0.58
2023-01-21T02:00:49.736Z,0.55
2023-01-21T02:03:36.196Z,0.52
2023-01-21T02:06:04.343Z,0.54
2023-01-21T02:08:34.362Z,0.49
2023-01-21T02:11:03.365Z,0.44
2023-01-21T02:13:33.164Z,0.50
2023-01-21T02:16:14.470Z,0.43
2023-01-21T02:18:50.475Z,0.34
2023-01-21T02:21:53.453Z,0.30
2023-01-21T02:25:00.616Z,0.30
2023-01-21T02:27:42.865Z,0.27
2023-01-21T02:30:42.372Z,0.27
2023-01-21T02:33:32.866Z,0.29
2023-01-21T02:36:13.424Z,0.23
2023-01-21T02:38:47.651Z,0.18
2023-01-21T02:41:24.163Z,0.16
2023-01-21T02:43:58.221Z,0.15
2023-01-21T02:46:32.376Z,0.12
2023-01-21T02:49:05.644Z,0.05
2023-01-21T02:51:33.386Z,0.07
2023-01-21T02:54:00.919Z,-0.01
2023-01-21T02:56:28.728Z,-0.08
2023-01-21T02:59:00.542Z,-0.14
2023-01-21T03:01:49.345Z,-0.16
2023-01-21T03:04:45.695Z,-0.19
2023-01-21T03:07:20.336Z,-0.24
2023-01-21T03:09:47.891Z,-0.22
2023-01-21T03:12:31.813Z,-0.28
2023-01-21T03:15:22.828Z,-0.31
2023-01-21T03:17:58.492Z,-0.42
2023-01-21T03:20:31.575Z,-0.42
2023-01-21T03:23:03.820Z,-0.46
2023-01-21T03:25:34.203Z,-0.51
2023-01-21T03:28:05.877Z,-0.54
2023-01-21T03:30:36.198Z,-0.61
2023-01-21T03:33:05.094Z,-0.60
2023-01-21T03:35:38.563Z,-0.60
2023-01-21T03:38:12.869Z,-0.63
2023-01-21T03:40:44.252Z,-0.64
2023-01-21T03:43:11.998Z,-0.61
2023-01-21T03:45:47.328Z,-0.61
2023-01-21T03:48:20.054Z,-0.69
2023-01-21T03:50:56.275Z,-0.73
2023-01-21T03:53:24.206Z,-0.77
2023-01-21T03:55:52.681Z,-0.80
2023-01-21T03:58:20.432Z,-0.83
2023-01-21T04:00:49.154Z,-0.85
2023-01-21T04:03:16.738Z,-0.88
2023-01-21T04:05:44.466Z,-0.82
2023-01-21T04:08:13.421Z,-0.77
2023-01-21T04:10:40.982Z,-0.69
2023-01-21T04:13:08.598Z,-0.61
2023-01-21T04:15:36.171Z,-0.40
2023-01-21T04:18:03.748Z,-0.24
2023-01-21T04:20:31.312Z,-0.23
2023-01-21T04:22:58.951Z,-0.18
2023-01-21T04:25:28.082Z,-0.25
2023-01-21T04:27:55.691Z,-0.27
2023-01-21T04:30:23.260Z,-0.31
2023-01-21T04:32:50.822Z,-0.34
2023-01-21T04:35:18.372Z,-0.33
2023-01-21T04:37:45.959Z,-0.36
2023-01-21T04:40:13.814Z,-0.33
2023-01-21T04:42:57.751Z,-0.36
2023-01-21T04:45:25.332Z,-0.37
2023-01-21T04:47:52.857Z,-0.40
2023-01-21T04:50:20.590Z,-0.41
2023-01-21T04:52:48.143Z,-0.39
2023-01-21T04:55:15.919Z,-0.42
2023-01-21T04:57:44.827Z,-0.46
2023-01-21T05:00:13.342Z,-0.45
2023-01-21T05:02:40.932Z,-0.49
2023-01-21T05:05:09.197Z,-0.55
2023-01-21T05:07:36.830Z,-0.57
2023-01-21T05:10:05.186Z,-0.61
2023-01-21T05:12:32.753Z,-0.69
2023-01-21T05:15:01.602Z,-0.72
2023-01-21T05:17:29.148Z,-0.81
2023-01-21T05:19:56.642Z,-0.68
2023-01-21T05:22:24.164Z,-0.69
2023-01-21T05:24:51.707Z,-0.75
2023-01-21T05:27:19.883Z,-0.78
2023-01-21T05:29:47.454Z,-0.85
2023-01-21T05:32:16.389Z,-0.89
2023-01-21T05:34:43.920Z,-0.91
2023-01-21T05:37:11.671Z,-0.95
2023-01-21T05:39:39.365Z,-1.02
2023-01-21T05:42:06.995Z,-1.15
2023-01-21T05:44:34.608Z,-1.22
2023-01-21T05:47:02.144Z,-1.22
2023-01-21T05:49:31.051Z,-1.28
2023-01-21T05:51:58.591Z,-1.40
2023-01-21T05:54:26.154Z,-1.47
2023-01-21T05:56:53.882Z,-1.51
2023-01-21T05:59:21.454Z,-1.54
2023-01-21T06:01:48.971Z,-1.51
2023-01-21T06:04:16.511Z,-1.56
2023-01-21T06:06:45.462Z,-1.60
2023-01-21T06:09:12.983Z,-1.67
2023-01-21T06:11:42.028Z,-1.74
2023-01-21T06:14:09.726Z,-1.78
2023-01-21T06:16:37.301Z,-1.85
2023-01-21T06:19:04.876Z,-1.89
2023-01-21T06:21:32.474Z,-1.94
2023-01-21T06:24:02.463Z,-1.93
2023-01-21T06:26:33.997Z,-1.73
2023-01-21T06:29:01.904Z,-1.77
2023-01-21T06:31:29.533Z,-1.80
2023-01-21T06:33:57.317Z,-1.90
2023-01-21T06:36:24.830Z,-1.91
2023-01-21T06:38:52.471Z,-1.94
2023-01-21T06:41:21.418Z,-1.96
2023-01-21T06:43:48.920Z,-1.95
2023-01-21T06:46:16.621Z,-1.92
2023-01-21T06:48:44.213Z,-1.85
2023-01-21T06:51:11.845Z,-1.90
2023-01-21T06:53:39.443Z,-1.91
2023-01-21T06:56:07.504Z,-1.80
2023-01-21T06:58:36.471Z,-1.81
2023-01-21T07:01:04.112Z,-1.81
2023-01-21T07:03:31.749Z,-1.76
2023-01-21T07:05:59.306Z,-1.67
2023-01-21T07:08:26.943Z,-1.65
2023-01-21T07:10:54.516Z,-1.61
2023-01-21T07:13:22.069Z,-1.61
2023-01-21T07:15:51.033Z,-1.61
2023-01-21T07:18:18.577Z,-1.62
2023-01-21T07:20:46.152Z,-1.57
2023-01-21T07:23:13.714Z,-1.14
2023-01-21T07:25:41.241Z,-1.10
2023-01-21T07:28:08.828Z,-1.09
2023-01-21T07:30:37.447Z,-1.12
2023-01-21T07:33:07.715Z,-1.06
2023-01-21T07:35:35.541Z,-0.98
2023-01-21T07:38:03.246Z,-0.88
2023-01-21T07:40:30.776Z,-0.84
2023-01-21T07:42:58.431Z,-0.82
2023-01-21T07:45:26.263Z,-0.90
2023-01-21T07:47:53.816Z,-0.86
2023-01-21T07:50:22.765Z,-0.87
2023-01-21T07:55:33.084Z,-0.88
2023-01-21T07:58:00.799Z,-0.90
2023-01-21T08:00:29.161Z,-0.96
2023-01-21T08:02:57.328Z,-0.90
2023-01-21T08:05:27.100Z,-0.86
2023-01-21T08:07:58.358Z,-0.82
2023-01-21T08:10:26.823Z,-0.83
2023-01-21T08:12:54.457Z,-0.75
2023-01-21T08:15:22.016Z,-0.62
2023-01-21T08:17:50.492Z,-0.48
2023-01-21T08:20:18.251Z,-0.37
2023-01-21T08:22:47.178Z,-0.35
2023-01-21T08:25:15.001Z,-0.35
2023-01-21T08:27:42.685Z,-0.38
2023-01-21T08:30:11.492Z,-0.35
2023-01-21T08:32:39.231Z,-0.36
2023-01-21T08:35:08.189Z,-0.35
2023-01-21T08:37:35.760Z,-0.40
2023-01-21T08:40:05.074Z,-0.36
2023-01-21T08:42:32.734Z,-0.30
2023-01-21T08:45:00.349Z,-0.25
2023-01-21T08:47:28.005Z,-0.18
2023-01-21T08:49:55.631Z,-0.10
2023-01-21T08:52:23.381Z,-0.06
2023-01-21T08:54:50.983Z,-0.03
2023-01-21T08:57:19.986Z,0.02
2023-01-21T08:59:47.649Z,0.07
2023-01-21T09:02:15.249Z,0.17
2023-01-21T09:04:42.922Z,0.25
2023-01-21T09:07:10.564Z,0.41
2023-01-21T09:09:38.137Z,0.37
2023-01-21T09:12:06.878Z,0.45
2023-01-21T09:14:35.767Z,0.40
2023-01-21T09:17:03.334Z,0.51
2023-01-21T09:19:30.940Z,0.50
2023-01-21T09:21:58.556Z,0.49
2023-01-21T09:24:26.366Z,0.55
2023-01-21T09:26:53.948Z,0.60
2023-01-21T09:29:21.598Z,0.57
2023-01-21T09:31:50.541Z,0.62
2023-01-21T09:34:18.144Z,0.65
2023-01-21T09:36:45.705Z,0.73
2023-01-21T09:39:13.253Z,0.69
2023-01-21T09:41:44.276Z,0.71
2023-01-21T09:44:20.317Z,0.78
2023-01-21T09:46:53.868Z,0.69
2023-01-21T09:49:25.407Z,0.77
2023-01-21T09:52:00.327Z,0.76
2023-01-21T09:54:30.278Z,0.82
2023-01-21T09:57:30.859Z,0.75
2023-01-21T10:00:08.942Z,0.72
2023-01-21T10:02:50.044Z,0.83
2023-01-21T10:05:40.996Z,0.88
2023-01-21T10:08:17.478Z,0.78
2023-01-21T10:10:50.295Z,0.78
2023-01-21T10:13:42.118Z,0.91
2023-01-21T10:16:16.125Z,1.03
2023-01-21T10:18:48.264Z,1.14
2023-01-21T10:21:22.151Z,1.22
2023-01-21T10:23:53.259Z,1.15
2023-01-21T10:26:20.945Z,1.29
2023-01-21T10:28:51.592Z,1.02
2023-01-21T10:31:22.951Z,0.91
2023-01-21T10:33:52.517Z,1.02
2023-01-21T10:36:51.503Z,1.09
2023-01-21T10:39:29.836Z,1.20
2023-01-21T10:42:19.537Z,1.29
2023-01-21T10:44:53.919Z,1.30
2023-01-21T10:47:31.203Z,1.40
2023-01-21T10:50:05.210Z,1.37
2023-01-21T10:52:41.985Z,1.36
2023-01-21T10:55:27.826Z,1.34
2023-01-21T10:57:59.753Z,1.42
2023-01-21T11:00:30.218Z,1.42
2023-01-21T11:03:02.502Z,1.49
2023-01-21T11:05:32.100Z,1.60
2023-01-21T11:08:00.384Z,1.62
2023-01-21T11:10:29.054Z,1.66
2023-01-21T11:12:57.266Z,1.57
2023-01-21T11:15:25.227Z,1.60
2023-01-21T11:17:56.349Z,1.57
2023-01-21T11:20:30.264Z,1.67
2023-01-21T11:22:59.321Z,1.59
2023-01-21T11:25:32.203Z,1.78
2023-01-21T11:27:59.844Z,1.87
2023-01-21T11:30:49.436Z,1.71
2023-01-21T11:33:26.888Z,1.70
2023-01-21T11:35:56.108Z,1.72
2023-01-21T11:38:33.064Z,1.75
2023-01-21T11:41:05.216Z,1.88
2023-01-21T11:43:35.371Z,1.86
2023-01-21T11:46:22.728Z,1.69
2023-01-21T11:48:50.656Z,1.66
2023-01-21T11:51:18.673Z,1.67
2023-01-21T11:53:47.612Z,1.60
2023-01-21T11:56:16.944Z,1.49
2023-01-21T11:58:44.557Z,1.41
2023-01-21T12:01:21.118Z,1.43
2023-01-21T12:03:53.067Z,1.47
2023-01-21T12:06:23.444Z,1.37
2023-01-21T12:08:54.358Z,1.36
2023-01-21T12:11:25.895Z,1.35
2023-01-21T12:14:02.231Z,1.27
2023-01-21T12:16:35.242Z,1.26
2023-01-21T12:19:25.066Z,1.14
2023-01-21T12:22:15.546Z,1.09
2023-01-21T12:25:03.650Z,0.99
2023-01-21T12:27:36.548Z,0.78
2023-01-21T12:30:13.039Z,0.83
2023-01-21T12:32:45.713Z,0.76
2023-01-21T12:35:19.009Z,0.66
2023-01-21T12:37:52.244Z,0.54
2023-01-21T12:40:29.848Z,0.55
2023-01-21T12:43:01.467Z,0.48
2023-01-21T12:45:36.229Z,0.46
2023-01-21T12:48:11.005Z,0.44
2023-01-21T12:50:43.691Z,0.52
2023-01-21T12:53:20.845Z,0.46
2023-01-21T12:56:08.043Z,0.46
2023-01-21T12:58:40.157Z,0.46
2023-01-21T13:01:12.048Z,0.53
2023-01-21T13:03:51.335Z,0.61
2023-01-21T13:06:29.576Z,0.69
2023-01-21T13:09:09.383Z,0.74
2023-01-21T13:11:45.323Z,0.70
2023-01-21T13:14:24.254Z,0.74
2023-01-21T13:16:58.603Z,0.78
2023-01-21T13:19:26.282Z,0.77
2023-01-21T13:22:02.391Z,0.65
2023-01-21T13:24:34.233Z,0.69
2023-01-21T13:27:12.966Z,0.66
2023-01-21T13:29:47.967Z,0.61
2023-01-21T13:32:26.258Z,0.64
2023-01-21T13:35:06.552Z,0.59
2023-01-21T13:37:40.461Z,0.57
2023-01-21T13:40:26.627Z,0.59
2023-01-21T13:43:07.570Z,0.60
2023-01-21T13:45:50.470Z,0.73
2023-01-21T13:48:29.215Z,0.64
2023-01-21T13:51:16.133Z,0.73
2023-01-21T13:54:00.554Z,0.76
2023-01-21T13:56:43.589Z,0.85
2023-01-21T13:59:17.890Z,0.89
2023-01-21T14:01:51.319Z,0.94
2023-01-21T14:04:26.891Z,0.75
2023-01-21T14:07:01.765Z,0.71
2023-01-21T14:09:37.173Z,0.71
2023-01-21T14:12:11.976Z,0.61
2023-01-21T14:15:15.879Z,0.65
2023-01-21T14:18:07.799Z,0.58
2023-01-21T14:21:02.039Z,0.58
2023-01-21T14:23:42.917Z,0.60
2023-01-21T14:26:20.485Z,0.64
2023-01-21T14:29:01.559Z,0.63
2023-01-21T14:31:36.625Z,0.59
2023-01-21T14:34:16.012Z,0.51
2023-01-21T14:36:52.673Z,0.56
2023-01-21T14:39:34.772Z,0.57
2023-01-21T14:42:10.711Z,0.55
2023-01-21T14:44:41.537Z,0.58
2023-01-21T14:47:22.701Z,0.51
2023-01-21T14:49:53.947Z,0.54
2023-01-21T14:52:28.823Z,0.46
2023-01-21T14:54:56.506Z,0.43
2023-01-21T14:57:28.935Z,0.40
2023-01-21T15:00:05.963Z,0.39
2023-01-21T15:02:41.306Z,0.39
2023-01-21T15:05:24.846Z,0.36
2023-01-21T15:08:05.459Z,0.40
2023-01-21T15:10:36.035Z,0.39
2023-01-21T15:13:07.383Z,0.41
2023-01-21T15:15:40.815Z,0.40
2023-01-21T15:18:26.281Z,0.34
2023-01-21T15:20:58.101Z,0.35
2023-01-21T15:23:37.874Z,0.40
2023-01-21T15:26:19.167Z,0.39
2023-01-21T15:28:47.492Z,0.38
2023-01-21T15:31:41.088Z,0.42
2023-01-21T15:34:14.261Z,0.44
2023-01-21T15:36:47.732Z,0.42
2023-01-21T15:39:17.704Z,0.36
2023-01-21T15:41:57.841Z,0.35
2023-01-21T15:44:49.144Z,0.35
2023-01-21T15:47:41.038Z,0.42
2023-01-21T15:50:20.965Z,0.39
2023-01-21T15:53:03.388Z,0.42
2023-01-21T15:55:41.721Z,0.40
2023-01-21T15:58:21.616Z,0.33
2023-01-21T16:00:55.172Z,0.33
2023-01-21T16:03:28.443Z,0.32
2023-01-21T16:06:03.785Z,0.35
2023-01-21T16:08:48.289Z,0.32
2023-01-21T16:11:40.351Z,0.35
2023-01-21T16:14:24.217Z,0.34
2023-01-21T16:17:02.548Z,0.29
2023-01-21T16:19:34.732Z,0.26
2023-01-21T16:22:07.441Z,0.24
2023-01-21T16:24:41.407Z,0.27
2023-01-21T16:27:19.763Z,0.20
2023-01-21T16:29:47.391Z,0.19
2023-01-21T16:32:19.938Z,0.20
2023-01-21T16:34:47.892Z,0.17
2023-01-21T16:37:18.951Z,0.16
2023-01-21T16:39:47.988Z,0.15
2023-01-21T16:42:25.777Z,0.17
2023-01-21T16:44:56.526Z,0.18
2023-01-21T16:47:27.075Z,0.19
2023-01-21T16:49:54.703Z,0.18
2023-01-21T16:52:24.413Z,0.22
2023-01-21T16:54:55.252Z,0.27
2023-01-21T16:57:28.740Z,0.27
2023-01-21T16:59:57.929Z,0.22
2023-01-21T17:02:28.645Z,0.19
2023-01-21T17:04:58.398Z,0.23
2023-01-21T17:07:29.473Z,0.20
2023-01-21T17:10:01.626Z,0.28
2023-01-21T17:12:31.525Z,0.25
2023-01-21T17:15:02.450Z,0.27
2023-01-21T17:17:31.976Z,0.30
2023-01-21T17:20:00.217Z,0.28
2023-01-21T17:22:31.895Z,0.27
2023-01-21T17:25:07.316Z,0.23
2023-01-21T17:27:37.695Z,0.25
2023-01-21T17:30:26.211Z,0.23
2023-01-21T17:32:55.418Z,0.18
2023-01-21T17:35:25.512Z,0.20
2023-01-21T17:37:55.252Z,0.25
2023-01-21T17:40:29.819Z,0.29
2023-01-21T17:42:58.871Z,0.24
2023-01-21T17:45:32.874Z,0.25
2023-01-21T17:48:12.438Z,0.29
2023-01-21T17:50:47.173Z,0.33
2023-01-21T17:53:22.820Z,0.25
2023-01-21T17:56:01.098Z,0.25
2023-01-21T17:58:47.068Z,0.27
2023-01-21T18:01:15.429Z,0.24
2023-01-21T18:03:43.234Z,0.23
2023-01-21T18:06:18.271Z,0.25
2023-01-21T18:08:45.913Z,0.27
2023-01-21T18:11:18.010Z,0.32
2023-01-21T18:13:45.558Z,0.32
2023-01-21T18:16:13.442Z,0.29
2023-01-21T18:18:41.900Z,0.33
2023-01-21T18:21:18.278Z,0.35
2023-01-21T18:23:45.902Z,0.34
2023-01-21T18:26:21.300Z,0.41
2023-01-21T18:28:48.894Z,0.39
2023-01-21T18:31:16.570Z,0.34
2023-01-21T18:33:44.305Z,0.35
2023-01-21T18:36:12.528Z,0.36
2023-01-21T18:38:40.210Z,0.34
2023-01-21T18:41:09.083Z,0.32
2023-01-21T18:43:37.993Z,0.33
2023-01-21T18:46:12.090Z,0.32
2023-01-21T18:48:39.644Z,0.31
2023-01-21T18:51:07.290Z,0.32
2023-01-21T18:53:34.861Z,0.40
2023-01-21T18:56:04.967Z,0.41
2023-01-21T18:58:32.911Z,0.40
2023-01-21T19:01:10.814Z,0.42
2023-01-21T19:03:43.312Z,0.36
2023-01-21T19:06:16.728Z,0.31
2023-01-21T19:08:48.393Z,0.23
2023-01-21T19:11:16.291Z,0.24
2023-01-21T19:13:43.863Z,0.24
2023-01-21T19:16:16.704Z,0.27
2023-01-21T19:18:44.529Z,0.32
2023-01-21T19:21:12.757Z,0.37
2023-01-21T19:23:40.971Z,0.31
2023-01-21T19:26:12.937Z,0.31
2023-01-21T19:28:40.557Z,0.31
2023-01-21T19:31:08.305Z,0.32
2023-01-21T19:33:37.323Z,0.28
2023-01-21T19:36:14.822Z,0.29
2023-01-21T19:38:44.157Z,0.28
2023-01-21T19:41:11.963Z,0.28
2023-01-21T19:43:41.059Z,0.49
2023-01-21T19:46:11.790Z,0.59
2023-01-21T19:48:41.464Z,0.87
2023-01-21T19:51:09.126Z,0.70
2023-01-21T19:53:37.431Z,0.63
2023-01-21T19:56:06.055Z,0.56
2023-01-21T19:58:36.112Z,0.55
2023-01-21T20:01:03.869Z,0.47
2023-01-21T20:03:31.529Z,0.40
2023-01-21T20:06:03.026Z,0.37
2023-01-21T20:08:33.060Z,0.39
2023-01-21T20:11:00.667Z,0.36
2023-01-21T20:13:32.189Z,0.37
2023-01-21T20:16:02.527Z,0.39
2023-01-21T20:18:32.479Z,0.39
2023-01-21T20:21:01.441Z,0.33
2023-01-21T20:23:30.974Z,0.35
2023-01-21T20:26:00.067Z,0.31
2023-01-21T20:28:30.982Z,0.35
2023-01-21T20:31:02.443Z,0.45
2023-01-21T20:33:30.048Z,0.38
2023-01-21T20:35:57.782Z,0.32
2023-01-21T20:38:30.058Z,0.32
2023-01-21T20:40:57.932Z,0.27
2023-01-21T20:43:25.448Z,0.31
2023-01-21T20:45:53.720Z,0.24
2023-01-21T20:48:26.019Z,0.22
2023-01-21T20:50:54.020Z,0.18
2023-01-21T20:53:21.936Z,0.19
2023-01-21T20:55:52.118Z,0.17
2023-01-21T20:58:21.891Z,0.21
2023-01-21T21:00:50.110Z,0.22
2023-01-21T21:03:19.159Z,0.19
2023-01-21T21:05:48.109Z,0.17
2023-01-21T21:08:18.024Z,0.40
2023-01-21T21:10:46.480Z,0.33
2023-01-21T21:13:15.765Z,0.32
2023-01-21T21:15:46.427Z,0.20
2023-01-21T21:18:14.435Z,0.19
2023-01-21T21:20:44.043Z,0.18
2023-01-21T21:23:14.020Z,0.21
2023-01-21T21:25:43.486Z,0.18
2023-01-21T21:28:11.575Z,0.16
2023-01-21T21:30:40.936Z,0.16
2023-01-21T21:33:15.389Z,0.16
2023-01-21T21:35:44.625Z,0.18
2023-01-21T21:38:15.135Z,0.24
2023-01-21T21:40:45.360Z,0.29
2023-01-21T21:43:43.960Z,0.32
2023-01-21T21:46:36.373Z,0.24
2023-01-21T21:49:04.642Z,0.22
2023-01-21T21:51:36.452Z,0.13
2023-01-21T21:54:05.737Z,0.16
2023-01-21T21:56:33.623Z,0.08
2023-01-21T21:59:10.518Z,0.07
2023-01-21T22:01:41.687Z,0.04
2023-01-21T22:04:09.860Z,0.08
2023-01-21T22:06:37.731Z,0.10
2023-01-21T22:09:06.018Z,0.09
2023-01-21T22:14:41.268Z,0.10
2023-01-21T22:17:13.327Z,0.10
2023-01-21T22:19:47.251Z,0.03
2023-01-21T22:22:15.137Z,-0.02
2023-01-21T22:24:43.953Z,0.13
2023-01-21T22:27:13.194Z,0.11
2023-01-21T22:29:42.273Z,0.03
2023-01-21T22:32:10.172Z,0.01
2023-01-21T22:34:41.630Z,0.02
2023-01-21T22:37:16.151Z,-0.02
2023-01-21T22:39:43.796Z,-0.04
2023-01-21T22:42:19.729Z,-0.04
2023-01-21T22:45:07.241Z,-0.06
2023-01-21T22:47:35.723Z,-0.07
2023-01-21T22:50:03.573Z,-0.05
2023-01-21T22:52:31.228Z,-0.10
2023-01-21T22:55:00.872Z,-0.06
2023-01-21T22:57:28.520Z,-0.04
2023-01-21T22:59:57.528Z,-0.06
2023-01-21T23:02:25.540Z,-0.09
2023-01-21T23:04:53.310Z,-0.11
2023-01-21T23:07:21.021Z,-0.09
2023-01-21T23:09:48.669Z,-0.08
2023-01-21T23:12:19.479Z,-0.04
2023-01-21T23:14:47.530Z,0.34
2023-01-21T23:17:17.525Z,0.55
2023-01-21T23:19:45.173Z,0.38
2023-01-21T23:22:12.789Z,0.26
2023-01-21T23:24:40.352Z,0.19
2023-01-21T23:27:07.917Z,0.21
2023-01-21T23:29:35.528Z,0.19
2023-01-21T23:32:03.268Z,0.22
2023-01-21T23:34:32.410Z,0.23
2023-01-21T23:36:59.980Z,0.17
2023-01-21T23:39:27.603Z,0.21
2023-01-21T23:41:55.818Z,0.16
2023-01-21T23:44:25.326Z,0.12
2023-01-21T23:46:52.973Z,0.06
2023-01-21T23:49:20.850Z,0.03
2023-01-21T23:51:49.926Z,0.02
2023-01-21T23:54:17.507Z,0.02
2023-01-21T23:56:45.276Z,-0.01
2023-01-21T23:59:12.873Z,-0.04
